createdAt,value
2018-06-05T00:00:15.045Z,26.20
2018-06-05T00:02:45.760Z,26.20
2018-06-05T00:05:17.643Z,24.80
2018-06-05T00:07:51.124Z,27.47
2018-06-05T00:12:59.719Z,25.53
2018-06-05T00:15:30.464Z,28.50
2018-06-05T00:18:00.344Z,27.30
2018-06-05T00:20:30.543Z,27.87
2018-06-05T00:23:05.019Z,28.80
2018-06-05T00:25:36.821Z,30.17
2018-06-05T00:28:08.094Z,28.50
2018-06-05T00:30:43.140Z,27.60
2018-06-05T00:35:53.319Z,30.70
2018-06-05T00:38:27.153Z,29.97
2018-06-05T00:40:57.262Z,30.80
2018-06-05T00:43:27.585Z,30.17
2018-06-05T00:45:58.490Z,27.40
2018-06-05T00:48:30.625Z,28.83
2018-06-05T00:51:01.149Z,29.10
2018-06-05T00:53:31.037Z,30.10
2018-06-05T00:56:06.918Z,30.23
2018-06-05T00:58:37.441Z,28.50
2018-06-05T01:01:07.269Z,30.20
2018-06-05T01:03:37.312Z,28.70
2018-06-05T01:06:07.002Z,33.80
2018-06-05T01:08:37.113Z,30.70
2018-06-05T01:11:08.093Z,30.70
2018-06-05T01:13:38.443Z,31.40
2018-06-05T01:16:08.775Z,31.60
2018-06-05T01:18:38.384Z,31.77
2018-06-05T01:21:08.374Z,32.17
2018-06-05T01:23:37.899Z,33.30
2018-06-05T01:26:07.620Z,31.67
2018-06-05T01:28:37.573Z,34.37
2018-06-05T01:31:08.876Z,33.17
2018-06-05T01:33:38.755Z,34.63
2018-06-05T01:36:09.353Z,32.43
2018-06-05T01:38:41.415Z,34.90
2018-06-05T01:41:11.642Z,35.87
2018-06-05T01:43:41.075Z,33.10
2018-06-05T01:46:10.926Z,33.50
2018-06-05T01:48:41.392Z,31.73
2018-06-05T01:51:11.793Z,35.20
2018-06-05T01:53:43.108Z,35.43
2018-06-05T01:56:13.116Z,35.80
2018-06-05T01:58:42.710Z,34.00
2018-06-05T02:01:11.973Z,35.00
2018-06-05T02:03:41.138Z,34.73
2018-06-05T02:06:11.086Z,35.90
2018-06-05T02:08:40.940Z,36.20
2018-06-05T02:11:10.988Z,36.13
2018-06-05T02:13:48.889Z,37.60
2018-06-05T02:16:19.531Z,37.30
2018-06-05T02:18:49.923Z,37.60
2018-06-05T02:21:19.885Z,35.03
2018-06-05T02:23:50.921Z,38.60
2018-06-05T02:26:21.459Z,37.10
2018-06-05T02:29:03.458Z,36.07
2018-06-05T02:31:45.264Z,39.37
2018-06-05T02:34:28.518Z,37.87
2018-06-05T02:37:03.843Z,39.43
2018-06-05T02:39:34.118Z,36.63
2018-06-05T02:42:10.409Z,41.37
2018-06-05T02:45:15.724Z,40.50
2018-06-05T02:47:49.569Z,39.10
2018-06-05T02:50:43.143Z,37.90
2018-06-05T02:53:43.777Z,40.10
2018-06-05T02:56:13.303Z,39.33
2018-06-05T02:58:42.814Z,39.50
2018-06-05T03:01:12.850Z,41.20
2018-06-05T03:03:43.978Z,40.30
2018-06-05T03:06:13.900Z,38.10
2018-06-05T03:10:45.361Z,38.93
2018-06-05T03:13:15.222Z,36.60
2018-06-05T03:15:47.108Z,38.87
2018-06-05T03:18:26.347Z,37.40
2018-06-05T06:20:44.507Z,22.63
2018-06-05T06:32:31.691Z,22.17
2018-06-05T06:35:00.545Z,20.20
2018-06-05T06:37:46.126Z,21.47
2018-06-05T06:40:17.950Z,21.23
2018-06-05T06:42:52.413Z,20.30
2018-06-05T06:45:21.532Z,22.10
2018-06-05T06:47:55.808Z,21.97
2018-06-05T06:50:28.881Z,20.20
2018-06-05T06:52:57.931Z,19.83
2018-06-05T06:55:32.574Z,21.37
2018-06-05T06:58:02.767Z,21.17
2018-06-05T07:00:34.503Z,19.90
2018-06-05T07:03:08.587Z,21.40
2018-06-05T07:05:37.434Z,20.47
2018-06-05T07:08:09.227Z,21.03
2018-06-05T07:10:39.805Z,19.27
2018-06-05T07:13:08.405Z,20.93
2018-06-05T07:15:38.552Z,20.87
2018-06-05T07:18:07.603Z,21.87
2018-06-05T07:20:40.090Z,19.63
2018-06-05T07:23:17.161Z,18.10
2018-06-05T07:25:47.288Z,20.23
2018-06-05T07:28:17.786Z,20.80
2018-06-05T07:30:47.589Z,21.57
2018-06-05T07:33:16.859Z,19.73
2018-06-05T07:35:46.883Z,19.50
2018-06-05T07:38:21.206Z,20.30
2018-06-05T07:40:50.501Z,19.03
2018-06-05T07:43:23.866Z,21.00
2018-06-05T07:45:52.451Z,23.07
2018-06-05T07:48:21.317Z,23.37
2018-06-05T07:50:49.973Z,24.83
2018-06-05T07:53:20.445Z,23.50
2018-06-05T07:59:59.686Z,19.93
2018-06-05T08:02:28.661Z,22.97
2018-06-05T08:04:57.770Z,23.97
2018-06-05T08:07:42.774Z,23.70
2018-06-05T08:10:16.575Z,24.60
2018-06-05T08:13:05.231Z,22.50
2018-06-05T08:15:42.543Z,22.37
2018-06-05T08:33:12.379Z,23.00
2018-06-05T08:35:41.245Z,22.27
2018-06-05T08:38:09.695Z,22.97
2018-06-05T08:40:41.862Z,24.83
2018-06-05T08:43:11.300Z,26.27
2018-06-05T08:51:47.188Z,23.60
2018-06-05T08:54:15.536Z,22.93
2018-06-05T08:56:44.769Z,26.33
2018-06-05T08:59:16.449Z,27.93
2018-06-05T09:01:44.953Z,26.70
2018-06-05T09:04:13.537Z,26.90
2018-06-05T09:06:46.217Z,24.40
2018-06-05T09:09:14.729Z,26.07
2018-06-05T09:11:43.250Z,23.40
2018-06-05T09:14:11.893Z,24.40
2018-06-05T09:16:41.335Z,24.87
2018-06-05T09:19:10.181Z,25.40
2018-06-05T09:21:38.691Z,25.77
2018-06-05T09:24:08.745Z,23.27
2018-06-05T09:26:38.161Z,27.73
2018-06-05T09:29:06.770Z,24.53
2018-06-05T09:31:36.511Z,23.53
2018-06-05T09:39:28.468Z,25.37
2018-06-05T10:54:00.070Z,30.37
2018-06-05T10:56:28.456Z,28.03
2018-06-05T10:58:56.797Z,30.53
2018-06-05T11:01:25.193Z,29.43
2018-06-05T11:03:54.073Z,31.33
2018-06-05T11:06:22.461Z,32.70
2018-06-05T11:08:56.639Z,31.37
2018-06-05T11:11:25.466Z,31.03
2018-06-05T11:13:53.828Z,30.70
2018-06-05T11:16:22.965Z,30.53
2018-06-05T11:18:52.234Z,33.43
2018-06-05T11:21:20.814Z,33.87
2018-06-05T11:24:02.270Z,31.10
2018-06-05T11:26:30.890Z,34.70
2018-06-05T11:28:59.345Z,35.67
2018-06-05T11:31:27.749Z,35.73
2018-06-05T11:33:56.166Z,34.13
2018-06-05T11:36:25.140Z,37.73
2018-06-05T11:38:53.613Z,32.37
2018-06-05T11:41:22.069Z,32.33
2018-06-05T11:43:50.402Z,35.60
2018-06-05T11:46:20.050Z,35.50
2018-06-05T11:48:48.424Z,35.17
2018-06-05T11:51:16.761Z,36.33
2018-06-05T11:53:45.073Z,35.40
2018-06-05T11:56:13.736Z,34.53
2018-06-05T11:58:42.159Z,32.10
2018-06-05T12:01:10.485Z,32.77
2018-06-05T12:03:38.805Z,32.97
2018-06-05T12:06:07.285Z,32.40
2018-06-05T12:08:35.719Z,31.37
2018-06-05T12:11:04.057Z,30.37
2018-06-05T12:13:32.764Z,28.13
2018-06-05T12:16:01.217Z,25.17
2018-06-05T12:18:29.621Z,23.67
2018-06-05T12:20:58.000Z,28.03
2018-06-05T12:23:27.745Z,25.90
2018-06-05T12:25:56.106Z,25.00
2018-06-05T12:28:24.443Z,24.70
2018-06-05T12:30:52.974Z,22.90
2018-06-05T12:33:21.628Z,26.50
2018-06-05T12:35:50.001Z,28.00
2018-06-05T12:38:18.445Z,26.40
2018-06-05T12:40:47.147Z,26.23
2018-06-05T12:43:15.569Z,26.57
2018-06-05T12:45:44.714Z,25.77
2018-06-05T12:48:13.682Z,26.53
2018-06-05T12:50:42.809Z,25.57
2018-06-05T12:53:11.577Z,24.47
2018-06-05T12:55:39.897Z,24.70
2018-06-05T12:58:09.561Z,24.80
2018-06-05T13:00:38.553Z,23.43
2018-06-05T13:03:09.628Z,26.33
2018-06-05T13:05:38.101Z,25.70
2018-06-05T13:08:06.853Z,27.17
2018-06-05T13:10:35.365Z,26.23
2018-06-05T13:13:04.731Z,28.17
2018-06-05T13:15:34.152Z,29.40
2018-06-05T13:18:02.621Z,24.83
2018-06-05T13:20:31.082Z,26.03
2018-06-05T13:22:59.773Z,27.10
2018-06-05T13:25:28.574Z,26.47
2018-06-05T13:27:57.187Z,26.67
2018-06-05T13:30:25.510Z,26.60
2018-06-05T13:32:53.845Z,25.47
2018-06-05T13:35:22.192Z,28.30
2018-06-05T13:37:50.551Z,26.87
2018-06-05T13:40:18.932Z,25.70
2018-06-05T13:42:50.821Z,27.53
2018-06-05T13:45:21.152Z,24.40
2018-06-05T13:47:49.611Z,22.30
2018-06-05T13:50:19.198Z,25.00
2018-06-05T13:52:47.714Z,24.90
2018-06-05T13:55:16.601Z,25.67
2018-06-05T13:57:45.618Z,22.67
2018-06-05T14:00:14.477Z,25.90
2018-06-05T14:02:43.445Z,27.90
2018-06-05T14:05:13.797Z,25.00
2018-06-05T14:07:42.540Z,28.30
2018-06-05T14:10:11.911Z,25.03
2018-06-05T14:12:44.032Z,22.57
2018-06-05T14:15:13.568Z,22.00
2018-06-05T14:17:43.179Z,22.33
2018-06-05T14:20:11.817Z,22.63
2018-06-05T14:22:40.278Z,25.30
2018-06-05T14:25:09.575Z,22.80
2018-06-05T14:27:38.529Z,20.77
2018-06-05T14:30:07.775Z,24.67
2018-06-05T14:32:36.533Z,23.93
2018-06-05T14:35:07.465Z,23.30
2018-06-05T14:37:39.851Z,24.80
2018-06-05T14:40:10.624Z,24.37
2018-06-05T14:42:42.976Z,23.20
2018-06-05T14:45:15.274Z,24.00
2018-06-05T14:47:44.400Z,21.83
2018-06-05T14:50:13.339Z,23.20
2018-06-05T14:52:41.836Z,23.80
2018-06-05T14:55:10.894Z,21.73
2018-06-05T14:57:41.209Z,24.27
2018-06-05T15:00:11.063Z,23.90
2018-06-05T15:02:41.964Z,21.70
2018-06-05T15:05:13.835Z,24.47
2018-06-05T15:07:44.763Z,24.37
2018-06-05T15:10:14.614Z,23.40
2018-06-05T15:12:43.249Z,25.17
2018-06-05T15:15:11.982Z,25.30
2018-06-05T15:17:40.884Z,23.40
2018-06-05T15:20:11.338Z,25.60
2018-06-05T15:22:39.907Z,22.70
2018-06-05T15:25:08.417Z,25.10
2018-06-05T15:27:36.958Z,22.30
2018-06-05T15:30:07.938Z,21.97
2018-06-05T15:32:36.285Z,20.40
2018-06-05T15:35:05.381Z,22.03
2018-06-05T15:37:35.345Z,19.90
2018-06-05T15:40:04.331Z,21.40
2018-06-05T15:42:32.986Z,22.90
2018-06-05T15:45:03.020Z,22.30
2018-06-05T15:47:32.247Z,21.03
2018-06-05T15:50:01.097Z,21.17
2018-06-05T15:52:30.582Z,20.77
2018-06-05T15:54:59.518Z,20.93
2018-06-05T15:57:28.117Z,22.30
2018-06-05T15:59:56.958Z,22.73
2018-06-05T16:02:26.552Z,23.87
2018-06-05T16:04:55.222Z,21.90
2018-06-05T16:07:23.975Z,19.00
2018-06-05T16:09:53.574Z,23.20
2018-06-05T16:12:22.121Z,21.80
2018-06-05T16:14:50.941Z,23.97
2018-06-05T16:17:19.517Z,22.77
2018-06-05T16:19:47.888Z,24.30
2018-06-05T16:22:18.291Z,21.50
2018-06-05T16:24:48.702Z,24.43
2018-06-05T16:27:17.251Z,22.63
2018-06-05T16:29:47.943Z,21.00
2018-06-05T16:32:16.867Z,21.17
2018-06-05T16:34:46.518Z,22.43
2018-06-05T16:37:15.010Z,23.77
2018-06-05T16:39:43.425Z,20.53
2018-06-05T16:42:11.882Z,23.20
2018-06-05T16:44:40.965Z,22.07
2018-06-05T17:30:08.662Z,21.57
2018-06-05T18:34:30.556Z,22.63
2018-06-05T18:44:06.216Z,20.70
2018-06-05T18:46:35.610Z,23.93
2018-06-05T18:49:06.649Z,26.10
2018-06-05T18:51:37.049Z,23.90
2018-06-05T18:54:07.160Z,25.33
2018-06-05T18:56:35.965Z,26.33
2018-06-05T18:59:04.542Z,27.10
2018-06-05T19:01:32.931Z,27.50
2018-06-05T19:04:01.293Z,26.20
2018-06-05T19:06:33.313Z,28.73
2018-06-05T19:09:16.064Z,31.43
2018-06-05T19:14:19.174Z,30.43
2018-06-05T19:16:49.061Z,32.73
2018-06-05T19:19:22.610Z,30.03
2018-06-05T19:21:51.555Z,29.63
2018-06-05T19:24:29.418Z,32.10
2018-06-05T19:26:58.076Z,34.23
2018-06-05T19:29:27.150Z,33.93
2018-06-05T19:31:55.814Z,33.10
2018-06-05T19:34:24.424Z,33.73
2018-06-05T19:36:54.957Z,35.50
2018-06-05T19:39:28.763Z,38.20
2018-06-05T19:42:07.528Z,38.57
2018-06-05T19:44:46.271Z,36.57
2018-06-05T19:47:21.359Z,37.97
2018-06-05T19:50:01.694Z,37.70
2018-06-05T19:55:55.629Z,38.60
2018-06-05T20:08:39.153Z,39.57
2018-06-05T21:10:57.220Z,45.90
2018-06-05T21:13:54.905Z,44.07
2018-06-05T21:22:13.573Z,42.77
2018-06-05T21:24:43.022Z,41.23
2018-06-05T21:27:23.413Z,41.73
2018-06-05T21:43:30.286Z,40.80
2018-06-05T21:46:15.941Z,45.10
2018-06-05T21:48:52.050Z,43.47
2018-06-05T21:54:35.324Z,44.17
2018-06-05T21:57:07.434Z,45.03
2018-06-05T21:59:36.337Z,43.67
2018-06-05T22:02:05.812Z,46.37
2018-06-05T22:04:34.998Z,46.17
2018-06-05T22:07:03.857Z,42.63
2018-06-05T22:09:34.829Z,43.00
2018-06-05T22:15:19.008Z,43.97
2018-06-05T22:17:48.988Z,46.23
2018-06-05T22:23:31.759Z,44.03
2018-06-05T23:06:43.781Z,43.40
2018-06-05T23:17:09.635Z,42.20
2018-06-05T23:19:43.419Z,40.70
